sensor_id;sensor_type;location;lat;lon;timestamp;P1;durP1;ratioP1;P2;durP2;ratioP2
9924;SDS011;5001;51.674;7.868;2022-12-18T00:01:28;45.87;;;25.13;;
9924;SDS011;5001;51.674;7.868;2022-12-18T00:04:00;51.77;;;25.33;;
9924;SDS011;5001;51.674;7.868;2022-12-18T00:06:30;40.57;;;23.43;;
9924;SDS011;5001;51.674;7.868;2022-12-18T00:08:59;49.70;;;25.27;;
9924;SDS011;5001;51.674;7.868;2022-12-18T00:11:27;48.43;;;26.40;;
9924;SDS011;5001;51.674;7.868;2022-12-18T00:13:56;42.27;;;24.03;;
9924;SDS011;5001;51.674;7.868;2022-12-18T00:16:25;43.37;;;23.20;;
9924;SDS011;5001;51.674;7.868;2022-12-18T00:18:54;44.17;;;23.87;;
9924;SDS011;5001;51.674;7.868;2022-12-18T00:21:22;46.67;;;24.70;;
9924;SDS011;5001;51.674;7.868;2022-12-18T00:23:49;46.20;;;25.40;;
9924;SDS011;5001;51.674;7.868;2022-12-18T00:26:17;44.03;;;23.60;;
9924;SDS011;5001;51.674;7.868;2022-12-18T00:28:48;46.07;;;24.20;;
9924;SDS011;5001;51.674;7.868;2022-12-18T00:31:17;49.97;;;25.67;;
9924;SDS011;5001;51.674;7.868;2022-12-18T00:33:46;54.47;;;28.40;;
9924;SDS011;5001;51.674;7.868;2022-12-18T00:36:19;47.10;;;25.87;;
9924;SDS011;5001;51.674;7.868;2022-12-18T00:38:50;50.00;;;26.00;;
9924;SDS011;5001;51.674;7.868;2022-12-18T00:41:19;51.33;;;28.07;;
9924;SDS011;5001;51.674;7.868;2022-12-18T00:44:06;52.23;;;28.73;;
9924;SDS011;5001;51.674;7.868;2022-12-18T00:46:34;54.50;;;29.77;;
9924;SDS011;5001;51.674;7.868;2022-12-18T00:49:01;54.37;;;30.53;;
9924;SDS011;5001;51.674;7.868;2022-12-18T00:51:28;60.77;;;32.27;;
9924;SDS011;5001;51.674;7.868;2022-12-18T00:53:55;61.60;;;32.67;;
9924;SDS011;5001;51.674;7.868;2022-12-18T00:56:23;63.67;;;31.97;;
9924;SDS011;5001;51.674;7.868;2022-12-18T00:58:51;58.37;;;31.23;;
9924;SDS011;5001;51.674;7.868;2022-12-18T01:01:18;55.97;;;31.37;;
9924;SDS011;5001;51.674;7.868;2022-12-18T01:03:46;56.60;;;30.57;;
9924;SDS011;5001;51.674;7.868;2022-12-18T01:06:15;54.57;;;31.77;;
9924;SDS011;5001;51.674;7.868;2022-12-18T01:08:42;57.47;;;31.97;;
9924;SDS011;5001;51.674;7.868;2022-12-18T01:11:13;53.57;;;31.20;;
9924;SDS011;5001;51.674;7.868;2022-12-18T01:13:41;59.73;;;31.17;;
9924;SDS011;5001;51.674;7.868;2022-12-18T01:16:13;59.23;;;32.20;;
9924;SDS011;5001;51.674;7.868;2022-12-18T01:18:42;55.93;;;29.60;;
9924;SDS011;5001;51.674;7.868;2022-12-18T01:21:10;57.80;;;31.03;;
9924;SDS011;5001;51.674;7.868;2022-12-18T01:23:39;57.17;;;29.77;;
9924;SDS011;5001;51.674;7.868;2022-12-18T01:26:07;49.27;;;26.90;;
9924;SDS011;5001;51.674;7.868;2022-12-18T01:28:38;53.50;;;29.03;;
9924;SDS011;5001;51.674;7.868;2022-12-18T01:31:49;74.30;;;36.17;;
9924;SDS011;5001;51.674;7.868;2022-12-18T01:34:01;60.67;;;33.93;;
9924;SDS011;5001;51.674;7.868;2022-12-18T01:36:29;73.23;;;34.17;;
9924;SDS011;5001;51.674;7.868;2022-12-18T01:39:02;56.27;;;29.47;;
9924;SDS011;5001;51.674;7.868;2022-12-18T01:41:31;55.17;;;29.83;;
9924;SDS011;5001;51.674;7.868;2022-12-18T01:47:15;46.23;;;24.00;;
9924;SDS011;5001;51.674;7.868;2022-12-18T01:49:54;39.13;;;23.13;;
9924;SDS011;5001;51.674;7.868;2022-12-18T01:52:22;46.77;;;24.17;;
9924;SDS011;5001;51.674;7.868;2022-12-18T01:54:52;43.53;;;23.47;;
9924;SDS011;5001;51.674;7.868;2022-12-18T01:57:20;42.87;;;23.50;;
9924;SDS011;5001;51.674;7.868;2022-12-18T01:59:50;41.50;;;23.93;;
9924;SDS011;5001;51.674;7.868;2022-12-18T02:02:20;44.07;;;23.10;;
9924;SDS011;5001;51.674;7.868;2022-12-18T02:04:47;47.07;;;24.27;;
9924;SDS011;5001;51.674;7.868;2022-12-18T02:12:53;44.87;;;22.80;;
9924;SDS011;5001;51.674;7.868;2022-12-18T02:18:19;46.93;;;22.50;;
9924;SDS011;5001;51.674;7.868;2022-12-18T02:20:58;43.93;;;22.23;;
9924;SDS011;5001;51.674;7.868;2022-12-18T02:28:59;41.30;;;22.43;;
9924;SDS011;5001;51.674;7.868;2022-12-18T02:31:31;44.53;;;24.23;;
9924;SDS011;5001;51.674;7.868;2022-12-18T02:34:09;37.87;;;22.07;;
9924;SDS011;5001;51.674;7.868;2022-12-18T02:36:39;43.50;;;23.80;;
9924;SDS011;5001;51.674;7.868;2022-12-18T02:39:10;45.67;;;22.70;;
9924;SDS011;5001;51.674;7.868;2022-12-18T02:41:45;48.40;;;22.47;;
9924;SDS011;5001;51.674;7.868;2022-12-18T02:44:14;33.83;;;19.97;;
9924;SDS011;5001;51.674;7.868;2022-12-18T02:49:32;43.20;;;23.67;;
9924;SDS011;5001;51.674;7.868;2022-12-18T02:58:09;37.10;;;20.50;;
9924;SDS011;5001;51.674;7.868;2022-12-18T03:00:48;36.97;;;20.77;;
9924;SDS011;5001;51.674;7.868;2022-12-18T03:06:10;38.37;;;21.53;;
9924;SDS011;5001;51.674;7.868;2022-12-18T03:08:42;34.73;;;21.20;;
9924;SDS011;5001;51.674;7.868;2022-12-18T03:11:15;36.80;;;20.23;;
9924;SDS011;5001;51.674;7.868;2022-12-18T03:14:04;45.23;;;21.67;;
9924;SDS011;5001;51.674;7.868;2022-12-18T03:16:33;42.27;;;20.70;;
9924;SDS011;5001;51.674;7.868;2022-12-18T03:19:08;36.07;;;21.33;;
9924;SDS011;5001;51.674;7.868;2022-12-18T03:21:45;34.70;;;19.50;;
9924;SDS011;5001;51.674;7.868;2022-12-18T03:24:17;34.67;;;19.80;;
9924;SDS011;5001;51.674;7.868;2022-12-18T03:26:48;40.67;;;21.47;;
9924;SDS011;5001;51.674;7.868;2022-12-18T03:29:27;35.07;;;18.07;;
9924;SDS011;5001;51.674;7.868;2022-12-18T03:31:58;34.87;;;20.00;;
9924;SDS011;5001;51.674;7.868;2022-12-18T03:34:31;43.37;;;20.00;;
9924;SDS011;5001;51.674;7.868;2022-12-18T03:37:05;41.33;;;20.93;;
9924;SDS011;5001;51.674;7.868;2022-12-18T03:39:33;39.53;;;20.43;;
9924;SDS011;5001;51.674;7.868;2022-12-18T03:42:05;34.50;;;19.47;;
9924;SDS011;5001;51.674;7.868;2022-12-18T03:50:53;37.17;;;20.90;;
9924;SDS011;5001;51.674;7.868;2022-12-18T03:55:16;33.50;;;19.93;;
9924;SDS011;5001;51.674;7.868;2022-12-18T03:57:50;35.53;;;19.97;;
9924;SDS011;5001;51.674;7.868;2022-12-18T04:00:19;32.23;;;17.70;;
9924;SDS011;5001;51.674;7.868;2022-12-18T04:02:57;29.67;;;18.77;;
9924;SDS011;5001;51.674;7.868;2022-12-18T04:05:37;35.60;;;19.90;;
9924;SDS011;5001;51.674;7.868;2022-12-18T04:08:06;34.23;;;18.93;;
9924;SDS011;5001;51.674;7.868;2022-12-18T04:10:36;32.33;;;18.33;;
9924;SDS011;5001;51.674;7.868;2022-12-18T04:13:04;30.20;;;18.93;;
9924;SDS011;5001;51.674;7.868;2022-12-18T04:15:32;31.50;;;18.60;;
9924;SDS011;5001;51.674;7.868;2022-12-18T04:18:03;35.10;;;19.13;;
9924;SDS011;5001;51.674;7.868;2022-12-18T04:20:37;30.83;;;18.07;;
9924;SDS011;5001;51.674;7.868;2022-12-18T04:23:04;39.90;;;19.10;;
9924;SDS011;5001;51.674;7.868;2022-12-18T04:25:32;33.03;;;18.87;;
9924;SDS011;5001;51.674;7.868;2022-12-18T04:28:13;30.83;;;17.87;;
9924;SDS011;5001;51.674;7.868;2022-12-18T04:30:41;33.23;;;17.40;;
9924;SDS011;5001;51.674;7.868;2022-12-18T04:33:12;34.30;;;17.50;;
9924;SDS011;5001;51.674;7.868;2022-12-18T04:35:39;27.40;;;16.90;;
9924;SDS011;5001;51.674;7.868;2022-12-18T04:38:07;33.17;;;17.67;;
9924;SDS011;5001;51.674;7.868;2022-12-18T04:40:34;28.90;;;17.00;;
9924;SDS011;5001;51.674;7.868;2022-12-18T04:43:07;32.73;;;18.87;;
9924;SDS011;5001;51.674;7.868;2022-12-18T04:45:34;35.13;;;18.67;;
9924;SDS011;5001;51.674;7.868;2022-12-18T04:48:01;30.87;;;17.37;;
9924;SDS011;5001;51.674;7.868;2022-12-18T04:50:29;29.13;;;17.60;;
9924;SDS011;5001;51.674;7.868;2022-12-18T04:52:56;31.67;;;18.17;;
9924;SDS011;5001;51.674;7.868;2022-12-18T04:55:23;32.50;;;19.57;;
9924;SDS011;5001;51.674;7.868;2022-12-18T04:57:50;31.93;;;17.53;;
9924;SDS011;5001;51.674;7.868;2022-12-18T05:00:17;31.03;;;18.10;;
9924;SDS011;5001;51.674;7.868;2022-12-18T05:02:45;37.20;;;18.70;;
9924;SDS011;5001;51.674;7.868;2022-12-18T05:05:12;35.03;;;19.03;;
9924;SDS011;5001;51.674;7.868;2022-12-18T05:07:39;32.07;;;18.50;;
9924;SDS011;5001;51.674;7.868;2022-12-18T05:10:06;31.80;;;19.30;;
9924;SDS011;5001;51.674;7.868;2022-12-18T05:12:35;32.23;;;18.43;;
9924;SDS011;5001;51.674;7.868;2022-12-18T05:15:22;36.20;;;18.50;;
9924;SDS011;5001;51.674;7.868;2022-12-18T05:17:50;34.00;;;19.13;;
9924;SDS011;5001;51.674;7.868;2022-12-18T05:20:17;33.50;;;17.80;;
9924;SDS011;5001;51.674;7.868;2022-12-18T05:22:44;29.23;;;18.33;;
9924;SDS011;5001;51.674;7.868;2022-12-18T05:25:11;35.93;;;18.87;;
9924;SDS011;5001;51.674;7.868;2022-12-18T05:27:38;34.40;;;18.60;;
9924;SDS011;5001;51.674;7.868;2022-12-18T05:30:05;35.03;;;18.50;;
9924;SDS011;5001;51.674;7.868;2022-12-18T05:32:32;30.53;;;17.17;;
9924;SDS011;5001;51.674;7.868;2022-12-18T05:34:59;25.57;;;15.60;;
9924;SDS011;5001;51.674;7.868;2022-12-18T05:37:26;34.20;;;18.17;;
9924;SDS011;5001;51.674;7.868;2022-12-18T05:39:53;29.40;;;16.03;;
9924;SDS011;5001;51.674;7.868;2022-12-18T05:42:20;32.33;;;15.70;;
9924;SDS011;5001;51.674;7.868;2022-12-18T05:44:47;29.40;;;16.53;;
9924;SDS011;5001;51.674;7.868;2022-12-18T05:47:14;29.93;;;16.53;;
9924;SDS011;5001;51.674;7.868;2022-12-18T05:49:41;33.43;;;19.47;;
9924;SDS011;5001;51.674;7.868;2022-12-18T05:52:08;42.27;;;22.17;;
9924;SDS011;5001;51.674;7.868;2022-12-18T05:54:35;36.20;;;22.17;;
9924;SDS011;5001;51.674;7.868;2022-12-18T05:57:02;32.30;;;19.23;;
9924;SDS011;5001;51.674;7.868;2022-12-18T05:59:29;33.97;;;18.33;;
9924;SDS011;5001;51.674;7.868;2022-12-18T06:01:56;34.97;;;19.77;;
9924;SDS011;5001;51.674;7.868;2022-12-18T06:04:23;44.17;;;20.33;;
9924;SDS011;5001;51.674;7.868;2022-12-18T06:06:52;40.30;;;20.67;;
9924;SDS011;5001;51.674;7.868;2022-12-18T06:09:19;36.73;;;19.77;;
9924;SDS011;5001;51.674;7.868;2022-12-18T06:11:46;37.03;;;18.73;;
9924;SDS011;5001;51.674;7.868;2022-12-18T06:14:13;27.03;;;16.47;;
9924;SDS011;5001;51.674;7.868;2022-12-18T06:16:43;30.50;;;17.13;;
9924;SDS011;5001;51.674;7.868;2022-12-18T06:19:12;30.20;;;17.83;;
9924;SDS011;5001;51.674;7.868;2022-12-18T06:21:41;31.97;;;17.27;;
9924;SDS011;5001;51.674;7.868;2022-12-18T06:24:08;27.97;;;16.70;;
9924;SDS011;5001;51.674;7.868;2022-12-18T06:26:37;28.67;;;16.10;;
9924;SDS011;5001;51.674;7.868;2022-12-18T06:29:07;35.07;;;16.33;;
9924;SDS011;5001;51.674;7.868;2022-12-18T06:31:34;31.63;;;15.17;;
9924;SDS011;5001;51.674;7.868;2022-12-18T06:34:02;29.13;;;16.13;;
9924;SDS011;5001;51.674;7.868;2022-12-18T06:36:30;34.53;;;17.60;;
9924;SDS011;5001;51.674;7.868;2022-12-18T06:38:57;27.33;;;16.27;;
9924;SDS011;5001;51.674;7.868;2022-12-18T06:41:24;29.40;;;15.83;;
9924;SDS011;5001;51.674;7.868;2022-12-18T06:43:51;32.80;;;16.93;;
9924;SDS011;5001;51.674;7.868;2022-12-18T06:46:24;26.57;;;15.23;;
9924;SDS011;5001;51.674;7.868;2022-12-18T06:48:51;28.93;;;16.47;;
9924;SDS011;5001;51.674;7.868;2022-12-18T06:51:19;29.27;;;15.90;;
9924;SDS011;5001;51.674;7.868;2022-12-18T06:53:47;28.13;;;15.10;;
9924;SDS011;5001;51.674;7.868;2022-12-18T06:56:14;26.73;;;15.43;;
9924;SDS011;5001;51.674;7.868;2022-12-18T06:58:42;30.03;;;15.93;;
9924;SDS011;5001;51.674;7.868;2022-12-18T07:01:09;29.03;;;15.87;;
9924;SDS011;5001;51.674;7.868;2022-12-18T07:03:38;22.07;;;14.40;;
9924;SDS011;5001;51.674;7.868;2022-12-18T07:06:12;27.03;;;15.07;;
9924;SDS011;5001;51.674;7.868;2022-12-18T07:08:41;29.13;;;16.20;;
9924;SDS011;5001;51.674;7.868;2022-12-18T07:11:08;27.00;;;16.03;;
9924;SDS011;5001;51.674;7.868;2022-12-18T07:13:35;29.50;;;16.67;;
9924;SDS011;5001;51.674;7.868;2022-12-18T07:16:06;41.20;;;20.70;;
9924;SDS011;5001;51.674;7.868;2022-12-18T07:18:44;43.90;;;21.23;;
9924;SDS011;5001;51.674;7.868;2022-12-18T07:21:14;51.67;;;23.73;;
9924;SDS011;5001;51.674;7.868;2022-12-18T07:23:43;37.10;;;19.20;;
9924;SDS011;5001;51.674;7.868;2022-12-18T07:26:12;58.43;;;27.97;;
9924;SDS011;5001;51.674;7.868;2022-12-18T07:28:41;35.03;;;19.87;;
9924;SDS011;5001;51.674;7.868;2022-12-18T07:31:09;31.80;;;17.63;;
9924;SDS011;5001;51.674;7.868;2022-12-18T07:33:38;33.80;;;18.63;;
9924;SDS011;5001;51.674;7.868;2022-12-18T07:36:06;38.67;;;18.90;;
9924;SDS011;5001;51.674;7.868;2022-12-18T07:38:34;33.77;;;18.13;;
9924;SDS011;5001;51.674;7.868;2022-12-18T07:41:02;34.60;;;19.40;;
9924;SDS011;5001;51.674;7.868;2022-12-18T07:43:32;35.03;;;20.23;;
9924;SDS011;5001;51.674;7.868;2022-12-18T07:46:00;33.13;;;17.40;;
9924;SDS011;5001;51.674;7.868;2022-12-18T07:48:27;37.27;;;19.33;;
9924;SDS011;5001;51.674;7.868;2022-12-18T07:50:58;34.10;;;18.83;;
9924;SDS011;5001;51.674;7.868;2022-12-18T07:53:26;33.57;;;19.23;;
9924;SDS011;5001;51.674;7.868;2022-12-18T07:55:57;39.30;;;21.37;;
9924;SDS011;5001;51.674;7.868;2022-12-18T07:58:45;33.07;;;19.17;;
9924;SDS011;5001;51.674;7.868;2022-12-18T08:01:13;31.90;;;19.13;;
9924;SDS011;5001;51.674;7.868;2022-12-18T08:03:40;30.57;;;17.87;;
9924;SDS011;5001;51.674;7.868;2022-12-18T08:06:08;26.23;;;15.27;;
9924;SDS011;5001;51.674;7.868;2022-12-18T08:08:36;24.23;;;14.77;;
9924;SDS011;5001;51.674;7.868;2022-12-18T08:11:03;29.60;;;15.53;;
9924;SDS011;5001;51.674;7.868;2022-12-18T08:13:30;31.17;;;17.13;;
9924;SDS011;5001;51.674;7.868;2022-12-18T08:18:28;23.83;;;14.27;;
9924;SDS011;5001;51.674;7.868;2022-12-18T08:21:13;31.30;;;17.37;;
9924;SDS011;5001;51.674;7.868;2022-12-18T08:23:46;23.00;;;15.87;;
9924;SDS011;5001;51.674;7.868;2022-12-18T08:26:14;31.50;;;17.03;;
9924;SDS011;5001;51.674;7.868;2022-12-18T08:28:42;30.67;;;18.87;;
9924;SDS011;5001;51.674;7.868;2022-12-18T08:31:09;30.17;;;19.47;;
9924;SDS011;5001;51.674;7.868;2022-12-18T08:33:36;35.07;;;20.43;;
9924;SDS011;5001;51.674;7.868;2022-12-18T08:36:05;35.80;;;21.10;;
9924;SDS011;5001;51.674;7.868;2022-12-18T08:38:32;34.90;;;19.80;;
9924;SDS011;5001;51.674;7.868;2022-12-18T08:41:00;30.73;;;18.83;;
9924;SDS011;5001;51.674;7.868;2022-12-18T08:43:28;30.77;;;19.20;;
9924;SDS011;5001;51.674;7.868;2022-12-18T08:46:13;37.03;;;20.50;;
9924;SDS011;5001;51.674;7.868;2022-12-18T08:48:40;30.33;;;20.47;;
9924;SDS011;5001;51.674;7.868;2022-12-18T08:51:07;34.73;;;20.50;;
9924;SDS011;5001;51.674;7.868;2022-12-18T08:53:36;40.77;;;24.33;;
9924;SDS011;5001;51.674;7.868;2022-12-18T08:56:04;43.97;;;25.47;;
9924;SDS011;5001;51.674;7.868;2022-12-18T08:58:32;43.90;;;26.83;;
9924;SDS011;5001;51.674;7.868;2022-12-18T09:00:59;34.73;;;22.67;;
9924;SDS011;5001;51.674;7.868;2022-12-18T09:03:30;32.13;;;20.43;;
9924;SDS011;5001;51.674;7.868;2022-12-18T09:05:57;34.83;;;23.13;;
9924;SDS011;5001;51.674;7.868;2022-12-18T09:08:25;34.67;;;21.47;;
9924;SDS011;5001;51.674;7.868;2022-12-18T09:10:52;32.17;;;20.03;;
9924;SDS011;5001;51.674;7.868;2022-12-18T09:13:19;25.97;;;18.07;;
9924;SDS011;5001;51.674;7.868;2022-12-18T09:15:48;27.40;;;17.90;;
9924;SDS011;5001;51.674;7.868;2022-12-18T09:18:17;27.63;;;18.83;;
9924;SDS011;5001;51.674;7.868;2022-12-18T09:20:45;26.83;;;17.83;;
9924;SDS011;5001;51.674;7.868;2022-12-18T09:23:13;29.20;;;17.10;;
9924;SDS011;5001;51.674;7.868;2022-12-18T09:25:40;25.43;;;17.30;;
9924;SDS011;5001;51.674;7.868;2022-12-18T09:28:12;27.40;;;18.57;;
9924;SDS011;5001;51.674;7.868;2022-12-18T09:30:42;24.73;;;17.27;;
9924;SDS011;5001;51.674;7.868;2022-12-18T09:33:16;22.70;;;15.40;;
9924;SDS011;5001;51.674;7.868;2022-12-18T09:35:43;22.83;;;14.97;;
9924;SDS011;5001;51.674;7.868;2022-12-18T09:38:12;21.33;;;14.50;;
9924;SDS011;5001;51.674;7.868;2022-12-18T09:40:51;20.13;;;14.13;;
9924;SDS011;5001;51.674;7.868;2022-12-18T09:43:22;19.33;;;14.63;;
9924;SDS011;5001;51.674;7.868;2022-12-18T09:45:59;22.67;;;15.63;;
9924;SDS011;5001;51.674;7.868;2022-12-18T09:48:39;22.90;;;15.50;;
9924;SDS011;5001;51.674;7.868;2022-12-18T09:51:18;24.20;;;15.30;;
9924;SDS011;5001;51.674;7.868;2022-12-18T09:53:50;23.60;;;14.90;;
9924;SDS011;5001;51.674;7.868;2022-12-18T09:56:24;45.13;;;27.07;;
9924;SDS011;5001;51.674;7.868;2022-12-18T09:58:59;25.93;;;17.43;;
9924;SDS011;5001;51.674;7.868;2022-12-18T10:01:28;19.13;;;14.23;;
9924;SDS011;5001;51.674;7.868;2022-12-18T10:04:08;17.00;;;11.63;;
9924;SDS011;5001;51.674;7.868;2022-12-18T10:09:20;14.67;;;11.30;;
9924;SDS011;5001;51.674;7.868;2022-12-18T10:12:17;14.43;;;10.50;;
9924;SDS011;5001;51.674;7.868;2022-12-18T10:14:50;11.60;;;7.67;;
9924;SDS011;5001;51.674;7.868;2022-12-18T10:17:45;16.20;;;11.17;;
9924;SDS011;5001;51.674;7.868;2022-12-18T10:20:42;18.87;;;12.00;;
9924;SDS011;5001;51.674;7.868;2022-12-18T10:26:24;15.50;;;11.80;;
9924;SDS011;5001;51.674;7.868;2022-12-18T10:28:51;19.40;;;14.20;;
9924;SDS011;5001;51.674;7.868;2022-12-18T10:31:21;13.57;;;10.00;;
9924;SDS011;5001;51.674;7.868;2022-12-18T10:33:50;10.43;;;8.33;;
9924;SDS011;5001;51.674;7.868;2022-12-18T10:36:22;12.90;;;9.60;;
9924;SDS011;5001;51.674;7.868;2022-12-18T10:38:51;16.20;;;12.87;;
9924;SDS011;5001;51.674;7.868;2022-12-18T10:43:47;13.37;;;8.73;;
9924;SDS011;5001;51.674;7.868;2022-12-18T10:46:15;9.70;;;7.57;;
9924;SDS011;5001;51.674;7.868;2022-12-18T10:51:23;10.60;;;7.70;;
9924;SDS011;5001;51.674;7.868;2022-12-18T10:53:51;10.60;;;6.97;;
9924;SDS011;5001;51.674;7.868;2022-12-18T10:56:27;9.70;;;6.50;;
9924;SDS011;5001;51.674;7.868;2022-12-18T10:58:57;8.90;;;6.87;;
9924;SDS011;5001;51.674;7.868;2022-12-18T11:01:25;11.63;;;7.30;;
9924;SDS011;5001;51.674;7.868;2022-12-18T11:06:27;10.77;;;6.13;;
9924;SDS011;5001;51.674;7.868;2022-12-18T11:11:38;13.37;;;8.90;;
9924;SDS011;5001;51.674;7.868;2022-12-18T11:14:06;14.93;;;8.77;;
9924;SDS011;5001;51.674;7.868;2022-12-18T11:16:43;15.80;;;9.43;;
9924;SDS011;5001;51.674;7.868;2022-12-18T11:19:33;10.03;;;6.90;;
9924;SDS011;5001;51.674;7.868;2022-12-18T11:22:16;12.13;;;7.77;;
9924;SDS011;5001;51.674;7.868;2022-12-18T11:24:52;12.23;;;7.17;;
9924;SDS011;5001;51.674;7.868;2022-12-18T11:27:47;8.77;;;6.80;;
9924;SDS011;5001;51.674;7.868;2022-12-18T11:30:35;10.70;;;8.00;;
9924;SDS011;5001;51.674;7.868;2022-12-18T11:33:04;10.13;;;7.50;;
9924;SDS011;5001;51.674;7.868;2022-12-18T11:43:53;12.33;;;7.80;;
9924;SDS011;5001;51.674;7.868;2022-12-18T11:46:32;12.83;;;7.80;;
9924;SDS011;5001;51.674;7.868;2022-12-18T11:49:14;13.60;;;9.40;;
9924;SDS011;5001;51.674;7.868;2022-12-18T11:54:20;19.07;;;11.17;;
9924;SDS011;5001;51.674;7.868;2022-12-18T11:56:55;14.43;;;9.33;;
9924;SDS011;5001;51.674;7.868;2022-12-18T12:10:55;14.13;;;8.97;;
9924;SDS011;5001;51.674;7.868;2022-12-18T12:16:15;14.77;;;8.97;;
9924;SDS011;5001;51.674;7.868;2022-12-18T12:21:27;17.27;;;10.43;;
9924;SDS011;5001;51.674;7.868;2022-12-18T12:27:20;16.63;;;8.77;;
9924;SDS011;5001;51.674;7.868;2022-12-18T12:35:31;13.77;;;9.70;;
9924;SDS011;5001;51.674;7.868;2022-12-18T12:41:22;15.13;;;9.60;;
9924;SDS011;5001;51.674;7.868;2022-12-18T12:44:19;10.50;;;7.60;;
9924;SDS011;5001;51.674;7.868;2022-12-18T12:46:58;11.57;;;8.83;;
9924;SDS011;5001;51.674;7.868;2022-12-18T12:49:29;12.23;;;8.33;;
9924;SDS011;5001;51.674;7.868;2022-12-18T12:52:12;14.17;;;9.33;;
9924;SDS011;5001;51.674;7.868;2022-12-18T12:54:43;18.47;;;11.37;;
9924;SDS011;5001;51.674;7.868;2022-12-18T12:57:30;13.90;;;8.83;;
9924;SDS011;5001;51.674;7.868;2022-12-18T13:00:05;16.10;;;9.33;;
9924;SDS011;5001;51.674;7.868;2022-12-18T13:05:23;12.77;;;8.57;;
9924;SDS011;5001;51.674;7.868;2022-12-18T13:08:09;14.27;;;9.50;;
9924;SDS011;5001;51.674;7.868;2022-12-18T13:10:39;16.70;;;11.30;;
9924;SDS011;5001;51.674;7.868;2022-12-18T13:13:11;15.00;;;10.33;;
9924;SDS011;5001;51.674;7.868;2022-12-18T13:15:45;27.83;;;16.07;;
9924;SDS011;5001;51.674;7.868;2022-12-18T13:18:33;27.00;;;15.33;;
9924;SDS011;5001;51.674;7.868;2022-12-18T13:23:36;23.93;;;12.63;;
9924;SDS011;5001;51.674;7.868;2022-12-18T13:28:49;15.63;;;10.60;;
9924;SDS011;5001;51.674;7.868;2022-12-18T13:34:29;13.70;;;9.43;;
9924;SDS011;5001;51.674;7.868;2022-12-18T13:37:34;15.10;;;10.03;;
9924;SDS011;5001;51.674;7.868;2022-12-18T13:40:24;12.77;;;9.03;;
9924;SDS011;5001;51.674;7.868;2022-12-18T13:51:19;28.80;;;16.00;;
9924;SDS011;5001;51.674;7.868;2022-12-18T13:53:54;25.97;;;16.50;;
9924;SDS011;5001;51.674;7.868;2022-12-18T13:56:29;29.60;;;18.83;;
9924;SDS011;5001;51.674;7.868;2022-12-18T14:01:54;44.80;;;20.90;;
9924;SDS011;5001;51.674;7.868;2022-12-18T14:04:27;34.23;;;17.00;;
9924;SDS011;5001;51.674;7.868;2022-12-18T14:07:05;29.17;;;15.40;;
9924;SDS011;5001;51.674;7.868;2022-12-18T14:09:41;32.30;;;17.23;;
9924;SDS011;5001;51.674;7.868;2022-12-18T14:12:44;36.37;;;20.47;;
9924;SDS011;5001;51.674;7.868;2022-12-18T14:17:53;41.43;;;25.43;;
9924;SDS011;5001;51.674;7.868;2022-12-18T14:20:26;34.23;;;21.00;;
9924;SDS011;5001;51.674;7.868;2022-12-18T14:22:55;32.00;;;19.00;;
9924;SDS011;5001;51.674;7.868;2022-12-18T14:25:25;33.83;;;19.60;;
9924;SDS011;5001;51.674;7.868;2022-12-18T14:30:43;34.50;;;17.83;;
9924;SDS011;5001;51.674;7.868;2022-12-18T14:33:25;33.77;;;17.90;;
9924;SDS011;5001;51.674;7.868;2022-12-18T14:35:57;44.97;;;24.23;;
9924;SDS011;5001;51.674;7.868;2022-12-18T14:38:30;36.40;;;23.93;;
9924;SDS011;5001;51.674;7.868;2022-12-18T14:43:31;24.47;;;16.57;;
9924;SDS011;5001;51.674;7.868;2022-12-18T14:46:00;23.53;;;16.10;;
9924;SDS011;5001;51.674;7.868;2022-12-18T14:48:36;32.60;;;20.27;;
9924;SDS011;5001;51.674;7.868;2022-12-18T14:53:54;21.67;;;15.13;;
9924;SDS011;5001;51.674;7.868;2022-12-18T14:56:25;26.20;;;14.47;;
9924;SDS011;5001;51.674;7.868;2022-12-18T15:01:33;17.10;;;12.13;;
9924;SDS011;5001;51.674;7.868;2022-12-18T15:04:04;17.73;;;11.70;;
9924;SDS011;5001;51.674;7.868;2022-12-18T15:06:47;18.07;;;11.87;;
9924;SDS011;5001;51.674;7.868;2022-12-18T15:09:22;14.40;;;10.17;;
9924;SDS011;5001;51.674;7.868;2022-12-18T15:11:59;17.13;;;10.57;;
9924;SDS011;5001;51.674;7.868;2022-12-18T15:14:31;16.90;;;10.57;;
9924;SDS011;5001;51.674;7.868;2022-12-18T15:17:17;15.83;;;10.77;;
9924;SDS011;5001;51.674;7.868;2022-12-18T15:19:58;15.07;;;9.50;;
9924;SDS011;5001;51.674;7.868;2022-12-18T15:22:36;16.13;;;9.50;;
9924;SDS011;5001;51.674;7.868;2022-12-18T15:25:21;16.20;;;10.40;;
9924;SDS011;5001;51.674;7.868;2022-12-18T15:27:58;15.60;;;10.87;;
9924;SDS011;5001;51.674;7.868;2022-12-18T15:30:25;11.67;;;8.90;;
9924;SDS011;5001;51.674;7.868;2022-12-18T15:32:55;14.97;;;9.80;;
9924;SDS011;5001;51.674;7.868;2022-12-18T15:35:55;12.63;;;9.00;;
9924;SDS011;5001;51.674;7.868;2022-12-18T15:38:23;13.10;;;8.57;;
9924;SDS011;5001;51.674;7.868;2022-12-18T15:40:51;12.07;;;8.07;;
9924;SDS011;5001;51.674;7.868;2022-12-18T15:43:23;12.10;;;7.60;;
9924;SDS011;5001;51.674;7.868;2022-12-18T15:46:04;10.37;;;7.37;;
9924;SDS011;5001;51.674;7.868;2022-12-18T15:48:57;11.67;;;6.80;;
9924;SDS011;5001;51.674;7.868;2022-12-18T15:54:00;11.93;;;6.73;;
9924;SDS011;5001;51.674;7.868;2022-12-18T15:56:30;10.93;;;7.30;;
9924;SDS011;5001;51.674;7.868;2022-12-18T15:59:17;9.67;;;7.17;;
9924;SDS011;5001;51.674;7.868;2022-12-18T16:01:47;9.47;;;6.47;;
9924;SDS011;5001;51.674;7.868;2022-12-18T16:04:16;13.33;;;7.60;;
9924;SDS011;5001;51.674;7.868;2022-12-18T16:06:46;14.43;;;8.30;;
9924;SDS011;5001;51.674;7.868;2022-12-18T16:09:38;11.63;;;8.40;;
9924;SDS011;5001;51.674;7.868;2022-12-18T16:12:06;14.80;;;8.37;;
9924;SDS011;5001;51.674;7.868;2022-12-18T16:14:47;16.90;;;11.63;;
9924;SDS011;5001;51.674;7.868;2022-12-18T16:17:15;15.10;;;9.30;;
9924;SDS011;5001;51.674;7.868;2022-12-18T16:19:42;30.73;;;10.33;;
9924;SDS011;5001;51.674;7.868;2022-12-18T16:22:19;17.73;;;10.70;;
9924;SDS011;5001;51.674;7.868;2022-12-18T16:24:49;18.83;;;12.83;;
9924;SDS011;5001;51.674;7.868;2022-12-18T16:27:17;20.60;;;12.80;;
9924;SDS011;5001;51.674;7.868;2022-12-18T16:29:44;24.43;;;14.70;;
9924;SDS011;5001;51.674;7.868;2022-12-18T16:32:16;23.00;;;13.83;;
9924;SDS011;5001;51.674;7.868;2022-12-18T16:34:45;20.13;;;13.43;;
9924;SDS011;5001;51.674;7.868;2022-12-18T16:37:13;28.20;;;15.50;;
9924;SDS011;5001;51.674;7.868;2022-12-18T16:39:41;23.23;;;14.50;;
9924;SDS011;5001;51.674;7.868;2022-12-18T16:42:13;15.97;;;11.40;;
9924;SDS011;5001;51.674;7.868;2022-12-18T16:44:46;14.70;;;8.87;;
9924;SDS011;5001;51.674;7.868;2022-12-18T16:47:15;16.17;;;8.47;;
9924;SDS011;5001;51.674;7.868;2022-12-18T16:49:43;12.07;;;8.00;;
9924;SDS011;5001;51.674;7.868;2022-12-18T16:52:21;11.70;;;7.20;;
9924;SDS011;5001;51.674;7.868;2022-12-18T16:54:48;9.20;;;7.17;;
9924;SDS011;5001;51.674;7.868;2022-12-18T16:57:16;10.00;;;6.97;;
9924;SDS011;5001;51.674;7.868;2022-12-18T16:59:46;10.63;;;7.40;;
9924;SDS011;5001;51.674;7.868;2022-12-18T17:02:18;18.53;;;11.83;;
9924;SDS011;5001;51.674;7.868;2022-12-18T17:04:52;26.67;;;16.13;;
9924;SDS011;5001;51.674;7.868;2022-12-18T17:07:21;27.40;;;14.17;;
9924;SDS011;5001;51.674;7.868;2022-12-18T17:09:48;19.17;;;11.73;;
9924;SDS011;5001;51.674;7.868;2022-12-18T17:12:16;20.70;;;12.47;;
9924;SDS011;5001;51.674;7.868;2022-12-18T17:14:43;19.53;;;11.87;;
9924;SDS011;5001;51.674;7.868;2022-12-18T17:17:10;16.97;;;11.03;;
9924;SDS011;5001;51.674;7.868;2022-12-18T17:19:48;17.67;;;11.40;;
9924;SDS011;5001;51.674;7.868;2022-12-18T17:22:16;19.10;;;10.30;;
9924;SDS011;5001;51.674;7.868;2022-12-18T17:24:43;23.47;;;13.93;;
9924;SDS011;5001;51.674;7.868;2022-12-18T17:27:11;23.13;;;15.13;;
9924;SDS011;5001;51.674;7.868;2022-12-18T17:29:38;27.00;;;16.27;;
9924;SDS011;5001;51.674;7.868;2022-12-18T17:32:12;25.17;;;16.20;;